createdAt,value
2019-03-05T00:00:53.057Z,992.48
2019-03-05T00:01:53.019Z,992.55
2019-03-05T00:02:53.009Z,992.51
2019-03-05T00:03:53.008Z,992.52
2019-03-05T00:04:52.986Z,992.54
2019-03-05T00:05:52.990Z,992.56
2019-03-05T00:06:52.962Z,992.54
2019-03-05T00:07:52.977Z,992.48
2019-03-05T00:08:52.941Z,992.50
2019-03-05T00:09:52.939Z,992.48
2019-03-05T00:10:52.944Z,992.51
2019-03-05T00:11:52.904Z,992.54
2019-03-05T00:12:52.898Z,992.54
2019-03-05T00:13:52.884Z,992.50
2019-03-05T00:14:52.879Z,992.55
2019-03-05T00:15:52.897Z,992.58
2019-03-05T00:16:52.853Z,992.56
2019-03-05T00:17:52.846Z,992.50
2019-03-05T00:18:52.829Z,992.58
2019-03-05T00:19:52.820Z,992.64
2019-03-05T00:20:52.816Z,992.50
2019-03-05T00:21:52.817Z,992.60
2019-03-05T00:22:52.809Z,992.55
2019-03-05T00:23:52.775Z,992.64
2019-03-05T00:24:52.761Z,992.57
2019-03-05T00:25:52.750Z,992.56
2019-03-05T00:26:52.755Z,992.55
2019-03-05T00:27:52.725Z,992.58
2019-03-05T00:28:52.717Z,992.49
2019-03-05T00:29:52.709Z,992.55
2019-03-05T00:30:52.704Z,992.52
2019-03-05T00:31:52.709Z,992.58
2019-03-05T00:32:52.675Z,992.56
2019-03-05T00:33:52.663Z,992.54
2019-03-05T00:34:52.662Z,992.55
2019-03-05T00:35:52.637Z,992.55
2019-03-05T00:36:52.651Z,992.52
2019-03-05T00:37:52.619Z,992.64
2019-03-05T00:38:52.615Z,992.62
2019-03-05T00:39:52.597Z,992.59
2019-03-05T00:40:52.584Z,992.59
2019-03-05T00:41:52.606Z,992.57
2019-03-05T00:42:52.573Z,992.61
2019-03-05T00:43:52.555Z,992.55
2019-03-05T00:44:52.552Z,992.58
2019-03-05T00:45:52.526Z,992.62
2019-03-05T00:46:52.518Z,992.65
2019-03-05T00:47:52.530Z,992.59
2019-03-05T00:48:52.491Z,992.54
2019-03-05T00:49:52.488Z,992.56
2019-03-05T00:50:52.470Z,992.70
2019-03-05T00:51:52.468Z,992.66
2019-03-05T00:52:52.467Z,992.63
2019-03-05T00:53:52.453Z,992.62
2019-03-05T00:54:52.429Z,992.63
2019-03-05T00:55:52.433Z,992.63
2019-03-05T00:56:52.405Z,992.54
2019-03-05T00:57:52.413Z,992.62
2019-03-05T00:58:52.397Z,992.63
2019-03-05T00:59:52.374Z,992.67
2019-03-05T01:00:52.430Z,992.65
2019-03-05T01:01:52.361Z,992.66
2019-03-05T01:02:52.339Z,992.63
2019-03-05T01:03:52.357Z,992.59
2019-03-05T01:04:52.315Z,992.61
2019-03-05T01:05:52.300Z,992.70
2019-03-05T01:06:52.299Z,992.63
2019-03-05T01:07:52.277Z,992.66
2019-03-05T01:08:52.311Z,992.65
2019-03-05T01:09:52.258Z,992.57
2019-03-05T01:10:52.254Z,992.62
2019-03-05T01:11:52.237Z,992.58
2019-03-05T01:12:52.225Z,992.57
2019-03-05T01:13:52.233Z,992.61
2019-03-05T01:14:52.198Z,992.60
2019-03-05T01:15:52.191Z,992.58
2019-03-05T01:16:52.189Z,992.55
2019-03-05T01:17:52.171Z,992.59
2019-03-05T01:18:52.176Z,992.55
2019-03-05T01:19:52.146Z,992.62
2019-03-05T01:20:52.137Z,992.59
2019-03-05T01:21:52.124Z,992.57
2019-03-05T01:22:52.109Z,992.59
2019-03-05T01:23:52.127Z,992.57
2019-03-05T01:24:52.099Z,992.56
2019-03-05T01:25:52.079Z,992.53
2019-03-05T01:26:52.064Z,992.54
2019-03-05T01:27:52.055Z,992.64
2019-03-05T01:28:52.072Z,992.61
2019-03-05T01:29:52.049Z,992.64
2019-03-05T01:30:52.023Z,992.61
2019-03-05T01:31:52.016Z,992.66
2019-03-05T01:32:51.999Z,992.63
2019-03-05T01:33:51.992Z,992.63
2019-03-05T01:34:52.008Z,992.60
2019-03-05T01:35:51.995Z,992.65
2019-03-05T01:36:51.960Z,992.66
2019-03-05T01:37:51.947Z,992.70
2019-03-05T01:38:51.930Z,992.68
2019-03-05T01:39:51.940Z,992.61
2019-03-05T01:40:51.913Z,992.63
2019-03-05T01:41:51.903Z,992.69
2019-03-05T01:42:51.887Z,992.63
2019-03-05T01:43:51.879Z,992.61
2019-03-05T01:44:51.900Z,992.61
2019-03-05T01:45:51.855Z,992.62
2019-03-05T01:46:51.848Z,992.54
2019-03-05T01:47:51.843Z,992.58
2019-03-05T01:48:51.825Z,992.60
2019-03-05T01:49:51.841Z,992.59
2019-03-05T01:50:51.802Z,992.67
2019-03-05T01:51:51.790Z,992.67
2019-03-05T01:52:51.785Z,992.70
2019-03-05T01:53:51.783Z,992.72
2019-03-05T01:54:51.755Z,992.69
2019-03-05T01:55:51.756Z,992.67
2019-03-05T01:56:51.734Z,992.65
2019-03-05T01:57:51.720Z,992.75
2019-03-05T01:58:51.714Z,992.76
2019-03-05T01:59:51.699Z,992.79
2019-03-05T02:00:51.714Z,992.75
2019-03-05T02:01:51.677Z,992.84
2019-03-05T02:02:51.668Z,992.79
2019-03-05T02:03:51.654Z,992.79
2019-03-05T02:04:51.656Z,992.88
2019-03-05T02:05:51.654Z,992.87
2019-03-05T02:06:51.619Z,992.85
2019-03-05T02:07:51.608Z,992.86
2019-03-05T02:08:51.600Z,992.82
2019-03-05T02:09:51.591Z,992.83
2019-03-05T02:10:51.596Z,992.91
2019-03-05T02:11:51.566Z,992.87
2019-03-05T02:12:51.553Z,992.90
2019-03-05T02:13:51.543Z,992.87
2019-03-05T02:14:51.530Z,992.85
2019-03-05T02:15:51.552Z,992.87
2019-03-05T02:16:51.508Z,992.83
2019-03-05T02:17:51.493Z,992.88
2019-03-05T02:18:51.486Z,992.92
2019-03-05T02:19:51.479Z,992.92
2019-03-05T02:20:51.464Z,992.91
2019-03-05T02:21:51.467Z,992.92
2019-03-05T02:22:51.442Z,992.97
2019-03-05T02:23:51.429Z,992.95
2019-03-05T02:24:51.423Z,992.98
2019-03-05T02:25:51.414Z,992.98
2019-03-05T02:26:51.420Z,992.93
2019-03-05T02:27:51.392Z,992.91
2019-03-05T02:28:51.375Z,992.93
2019-03-05T02:29:51.365Z,993.03
2019-03-05T02:30:51.360Z,992.97
2019-03-05T02:31:51.367Z,992.99
2019-03-05T02:32:51.339Z,992.95
2019-03-05T02:33:51.316Z,992.95
2019-03-05T02:34:51.308Z,993.00
2019-03-05T02:35:51.302Z,992.91
2019-03-05T02:36:51.319Z,992.89
2019-03-05T02:37:51.277Z,992.92
2019-03-05T02:38:51.273Z,992.92
2019-03-05T02:39:51.251Z,992.94
2019-03-05T02:40:51.246Z,992.96
2019-03-05T02:41:51.259Z,992.94
2019-03-05T02:42:51.219Z,992.92
2019-03-05T02:43:51.211Z,993.01
2019-03-05T02:44:51.202Z,992.92
2019-03-05T02:45:51.180Z,992.95
2019-03-05T02:46:51.172Z,992.97
2019-03-05T02:47:51.279Z,992.98
2019-03-05T02:48:51.154Z,992.96
2019-03-05T02:49:51.149Z,992.91
2019-03-05T02:50:51.147Z,992.96
2019-03-05T02:51:51.121Z,993.00
2019-03-05T02:52:51.123Z,992.98
2019-03-05T02:53:51.092Z,993.02
2019-03-05T02:54:51.090Z,993.04
2019-03-05T02:55:51.086Z,992.97
2019-03-05T02:56:51.072Z,993.02
2019-03-05T02:57:51.081Z,992.99
2019-03-05T02:58:51.041Z,993.01
2019-03-05T02:59:51.030Z,992.94
2019-03-05T03:00:51.022Z,992.98
2019-03-05T03:01:51.008Z,992.91
2019-03-05T03:02:51.023Z,992.94
2019-03-05T03:03:50.998Z,992.97
2019-03-05T03:04:50.977Z,992.94
2019-03-05T03:05:50.963Z,992.96
2019-03-05T03:06:50.950Z,992.93
2019-03-05T03:07:50.968Z,992.93
2019-03-05T03:08:50.930Z,992.91
2019-03-05T03:09:50.916Z,992.85
2019-03-05T03:10:50.905Z,992.91
2019-03-05T03:11:50.905Z,992.88
2019-03-05T03:12:50.888Z,992.95
2019-03-05T03:13:50.907Z,992.93
2019-03-05T03:14:50.862Z,992.91
2019-03-05T03:15:50.850Z,992.88
2019-03-05T03:16:50.839Z,992.88
2019-03-05T03:17:50.832Z,992.86
2019-03-05T03:18:50.830Z,992.92
2019-03-05T03:19:50.813Z,992.84
2019-03-05T03:20:50.795Z,992.87
2019-03-05T03:21:50.783Z,992.95
2019-03-05T03:22:50.784Z,992.87
2019-03-05T03:23:50.785Z,992.95
2019-03-05T03:24:50.752Z,992.99
2019-03-05T03:25:50.744Z,992.96
2019-03-05T03:26:50.725Z,993.01
2019-03-05T03:27:50.748Z,992.97
2019-03-05T03:28:50.734Z,993.02
2019-03-05T03:29:50.694Z,992.98
2019-03-05T03:30:50.696Z,992.99
2019-03-05T03:31:50.668Z,992.98
2019-03-05T03:32:50.829Z,993.01
2019-03-05T03:33:50.668Z,993.03
2019-03-05T03:34:50.648Z,993.03
2019-03-05T03:35:50.638Z,992.96
2019-03-05T03:36:50.622Z,993.00
2019-03-05T03:37:50.608Z,992.99
2019-03-05T03:38:50.612Z,992.96
2019-03-05T03:39:50.582Z,992.99
2019-03-05T03:40:50.572Z,992.99
2019-03-05T03:41:50.570Z,993.09
2019-03-05T03:42:50.555Z,993.06
2019-03-05T03:43:50.662Z,992.98
2019-03-05T03:44:50.533Z,993.06
2019-03-05T03:45:50.525Z,993.10
2019-03-05T03:46:50.503Z,993.12
2019-03-05T03:47:50.497Z,993.10
2019-03-05T03:48:50.481Z,993.10
2019-03-05T03:49:50.486Z,993.13
2019-03-05T03:50:50.458Z,993.11
2019-03-05T03:51:51.531Z,993.09
2019-03-05T03:52:50.444Z,993.17
2019-03-05T03:53:50.428Z,993.20
2019-03-05T03:54:50.455Z,993.20
2019-03-05T03:55:50.408Z,993.23
2019-03-05T03:56:50.396Z,993.14
2019-03-05T03:57:50.391Z,993.26
2019-03-05T03:58:50.375Z,993.28
2019-03-05T03:59:50.380Z,993.31
2019-03-05T04:00:50.349Z,993.41
2019-03-05T04:01:50.346Z,993.35
2019-03-05T04:02:50.331Z,993.40
2019-03-05T04:03:50.310Z,993.38
2019-03-05T04:04:50.345Z,993.31
2019-03-05T04:05:50.305Z,993.36
2019-03-05T04:06:50.282Z,993.36
2019-03-05T04:07:50.277Z,993.31
2019-03-05T04:08:50.254Z,993.45
2019-03-05T04:09:50.244Z,993.51
2019-03-05T04:10:50.254Z,993.38
2019-03-05T04:11:50.230Z,993.35
2019-03-05T04:12:50.215Z,993.40
2019-03-05T04:13:50.198Z,993.45
2019-03-05T04:14:50.197Z,993.40
2019-03-05T04:15:50.200Z,993.41
2019-03-05T04:16:50.167Z,993.38
2019-03-05T04:17:50.158Z,993.48
2019-03-05T04:18:50.145Z,993.48
2019-03-05T04:19:50.139Z,993.43
2019-03-05T04:20:50.143Z,993.45
2019-03-05T04:21:50.115Z,993.43
2019-03-05T04:22:50.119Z,993.49
2019-03-05T04:23:50.086Z,993.47
2019-03-05T04:24:50.076Z,993.45
2019-03-05T04:25:50.089Z,993.49
2019-03-05T04:26:50.055Z,993.38
2019-03-05T04:27:50.051Z,993.41
2019-03-05T04:28:50.047Z,993.52
2019-03-05T04:29:50.032Z,993.45
2019-03-05T04:30:50.031Z,993.45
2019-03-05T04:31:50.007Z,993.43
2019-03-05T04:32:49.992Z,993.42
2019-03-05T04:33:49.981Z,993.46
2019-03-05T04:34:49.961Z,993.54
2019-03-05T04:35:49.968Z,993.51
2019-03-05T04:36:49.947Z,993.45
2019-03-05T04:37:49.946Z,993.42
2019-03-05T04:38:49.920Z,993.58
2019-03-05T04:39:49.920Z,993.54
2019-03-05T04:40:49.899Z,993.51
2019-03-05T04:41:49.972Z,993.53
2019-03-05T04:42:49.875Z,993.56
2019-03-05T04:43:49.869Z,993.55
2019-03-05T04:44:49.852Z,993.56
2019-03-05T04:45:49.852Z,993.51
2019-03-05T04:46:49.858Z,993.52
2019-03-05T04:47:49.824Z,993.56
2019-03-05T04:48:49.820Z,993.56
2019-03-05T04:49:49.799Z,993.56
2019-03-05T04:50:49.799Z,993.57
2019-03-05T04:51:49.901Z,993.60
2019-03-05T04:52:49.766Z,993.54
2019-03-05T04:53:49.758Z,993.52
2019-03-05T04:54:49.748Z,993.59
2019-03-05T04:55:49.734Z,993.59
2019-03-05T04:56:49.738Z,993.54
2019-03-05T04:57:49.709Z,993.64
2019-03-05T04:58:49.698Z,993.55
2019-03-05T04:59:49.687Z,993.55
2019-03-05T05:00:49.677Z,993.60
2019-03-05T05:01:49.689Z,993.66
2019-03-05T05:02:49.654Z,993.62
2019-03-05T05:03:49.647Z,993.54
2019-03-05T05:04:49.632Z,993.58
2019-03-05T05:05:49.624Z,993.72
2019-03-05T05:06:49.634Z,993.59
2019-03-05T05:07:49.597Z,993.63
2019-03-05T05:08:49.591Z,993.59
2019-03-05T05:09:49.575Z,993.62
2019-03-05T05:10:49.563Z,993.59
2019-03-05T05:11:49.550Z,993.60
2019-03-05T05:12:49.568Z,993.64
2019-03-05T05:13:49.543Z,993.68
2019-03-05T05:14:49.521Z,993.62
2019-03-05T05:15:49.504Z,993.63
2019-03-05T05:16:49.495Z,993.60
2019-03-05T05:17:49.499Z,993.61
2019-03-05T05:18:49.472Z,993.58
2019-03-05T05:19:49.461Z,993.63
2019-03-05T05:20:49.451Z,993.67
2019-03-05T05:21:49.434Z,993.68
2019-03-05T05:22:49.442Z,993.81
2019-03-05T05:23:49.428Z,993.80
2019-03-05T05:24:49.406Z,993.82
2019-03-05T05:25:49.398Z,993.78
2019-03-05T05:26:49.378Z,993.77
2019-03-05T05:27:49.381Z,993.71
2019-03-05T05:28:49.366Z,993.96
2019-03-05T05:29:49.348Z,993.87
2019-03-05T05:30:49.341Z,993.79
2019-03-05T05:31:49.325Z,993.79
2019-03-05T05:32:49.346Z,993.88
2019-03-05T05:33:49.303Z,993.91
2019-03-05T05:34:49.292Z,993.99
2019-03-05T05:35:49.276Z,993.90
2019-03-05T05:36:49.268Z,994.04
2019-03-05T05:37:49.277Z,993.97
2019-03-05T05:38:49.242Z,993.90
2019-03-05T05:39:49.234Z,994.01
2019-03-05T05:40:49.228Z,993.97
2019-03-05T05:41:49.223Z,993.98
2019-03-05T05:42:49.219Z,993.88
2019-03-05T05:43:49.191Z,993.94
2019-03-05T05:44:49.180Z,994.04
2019-03-05T05:45:49.174Z,994.01
2019-03-05T05:46:49.157Z,994.09
2019-03-05T05:47:49.162Z,994.09
2019-03-05T05:48:49.139Z,994.03
2019-03-05T05:49:49.124Z,994.08
2019-03-05T05:50:49.111Z,994.08
2019-03-05T05:51:49.098Z,994.03
2019-03-05T05:52:49.134Z,993.96
2019-03-05T05:53:49.087Z,994.15
2019-03-05T05:54:49.070Z,994.14
2019-03-05T05:55:49.069Z,994.06
2019-03-05T05:56:49.044Z,994.11
2019-03-05T05:57:49.035Z,994.17
2019-03-05T05:58:49.041Z,994.22
2019-03-05T05:59:49.014Z,994.21
2019-03-05T06:00:49.000Z,994.14
2019-03-05T06:01:48.986Z,994.35
2019-03-05T06:02:48.974Z,994.24
2019-03-05T06:03:48.984Z,994.28
2019-03-05T06:04:48.953Z,994.31
2019-03-05T06:05:48.951Z,994.38
2019-03-05T06:06:48.937Z,994.37
2019-03-05T06:07:48.920Z,994.34
2019-03-05T06:08:48.939Z,994.30
2019-03-05T06:09:48.897Z,994.50
2019-03-05T06:10:48.894Z,994.43
2019-03-05T06:11:48.884Z,994.36
2019-03-05T06:12:48.880Z,994.45
2019-03-05T06:13:48.876Z,994.46
2019-03-05T06:14:48.836Z,994.50
2019-03-05T06:15:48.828Z,994.50
2019-03-05T06:16:48.827Z,994.57
2019-03-05T06:17:48.802Z,994.48
2019-03-05T06:18:48.830Z,994.58
2019-03-05T06:19:48.792Z,994.54
2019-03-05T06:20:48.779Z,994.50
2019-03-05T06:21:48.765Z,994.52
2019-03-05T06:22:48.756Z,994.51
2019-03-05T06:23:48.776Z,994.63
2019-03-05T06:24:48.730Z,994.72
2019-03-05T06:25:48.730Z,994.54
2019-03-05T06:26:48.718Z,994.62
2019-03-05T06:27:48.693Z,994.68
2019-03-05T06:28:48.699Z,994.63
2019-03-05T06:29:48.672Z,994.70
2019-03-05T06:30:48.664Z,994.65
2019-03-05T06:31:48.652Z,994.76
2019-03-05T06:32:48.638Z,994.74
2019-03-05T06:33:48.659Z,994.74
2019-03-05T06:34:48.612Z,994.99
2019-03-05T06:35:48.615Z,994.76
2019-03-05T06:36:48.596Z,994.76
2019-03-05T06:37:48.584Z,994.79
2019-03-05T06:38:48.593Z,994.82
2019-03-05T06:39:48.568Z,994.75
2019-03-05T06:40:48.562Z,994.83
2019-03-05T06:41:48.536Z,994.88
2019-03-05T06:42:48.532Z,994.90
2019-03-05T06:43:48.544Z,994.95
2019-03-05T06:44:48.504Z,994.97
2019-03-05T06:45:48.502Z,994.96
2019-03-05T06:46:48.484Z,994.97
2019-03-05T06:47:48.472Z,995.01
2019-03-05T06:48:48.459Z,995.00
2019-03-05T06:49:48.468Z,995.06
2019-03-05T06:50:48.442Z,995.06
2019-03-05T06:51:48.433Z,995.09
2019-03-05T06:52:48.412Z,995.15
2019-03-05T06:53:48.412Z,995.11
2019-03-05T06:54:48.414Z,995.14
2019-03-05T06:55:48.383Z,995.15
2019-03-05T06:56:48.401Z,995.14
2019-03-05T06:57:48.433Z,995.13
2019-03-05T06:58:48.342Z,995.12
2019-03-05T06:59:48.363Z,995.14
2019-03-05T07:00:48.330Z,995.17
2019-03-05T07:01:48.318Z,995.12
2019-03-05T07:02:48.302Z,995.15
2019-03-05T07:03:48.426Z,995.25
2019-03-05T07:04:48.452Z,995.18
2019-03-05T07:05:48.266Z,995.20
2019-03-05T07:06:48.266Z,995.22
2019-03-05T07:07:48.254Z,995.21
2019-03-05T07:08:48.244Z,995.17
2019-03-05T07:09:48.262Z,995.19
2019-03-05T07:10:48.210Z,995.16
2019-03-05T07:11:48.205Z,995.16
2019-03-05T07:12:48.196Z,995.20
2019-03-05T07:13:48.191Z,995.18
2019-03-05T07:14:48.190Z,995.21
2019-03-05T07:15:48.154Z,995.23
2019-03-05T07:16:48.147Z,995.30
2019-03-05T07:17:48.152Z,995.16
2019-03-05T07:18:48.122Z,995.21
2019-03-05T07:19:57.527Z,995.20
2019-03-05T07:20:49.100Z,995.31
2019-03-05T07:21:48.091Z,995.30
2019-03-05T07:22:48.100Z,995.14
2019-03-05T07:23:48.089Z,995.24
2019-03-05T07:24:48.089Z,995.23
2019-03-05T07:25:48.051Z,995.33
2019-03-05T07:26:48.083Z,995.26
2019-03-05T07:27:48.019Z,995.29
2019-03-05T07:28:48.015Z,995.28
2019-03-05T07:29:48.005Z,995.35
2019-03-05T07:30:48.002Z,995.42
2019-03-05T07:31:47.995Z,995.28
2019-03-05T07:32:47.962Z,995.32
2019-03-05T07:33:47.951Z,995.31
2019-03-05T07:34:47.942Z,995.36
2019-03-05T07:35:48.009Z,995.47
2019-03-05T07:36:47.929Z,995.33
2019-03-05T07:37:47.911Z,995.39
2019-03-05T07:38:47.898Z,995.37
2019-03-05T07:39:47.894Z,995.36
2019-03-05T07:40:47.889Z,995.47
2019-03-05T07:41:48.293Z,995.46
2019-03-05T07:42:47.940Z,995.51
2019-03-05T07:43:47.840Z,995.41
2019-03-05T07:44:47.837Z,995.47
2019-03-05T07:45:47.843Z,995.49
2019-03-05T07:46:47.819Z,995.38
2019-03-05T07:47:47.794Z,995.58
2019-03-05T07:48:47.793Z,995.49
2019-03-05T07:49:47.775Z,995.41
2019-03-05T07:50:47.778Z,995.45
2019-03-05T07:51:47.756Z,995.57
2019-03-05T07:52:47.734Z,995.44
2019-03-05T07:53:47.732Z,995.49
2019-03-05T07:54:47.730Z,995.45
2019-03-05T07:55:47.722Z,995.52
2019-03-05T07:56:47.693Z,995.54
2019-03-05T07:57:47.677Z,995.46
2019-03-05T07:58:47.676Z,995.49
2019-03-05T07:59:47.671Z,995.52
2019-03-05T08:00:47.705Z,995.60
2019-03-05T08:01:47.635Z,995.49
2019-03-05T08:02:47.696Z,995.58
2019-03-05T08:03:47.686Z,995.53
2019-03-05T08:04:47.604Z,995.51
2019-03-05T08:05:47.774Z,995.62
2019-03-05T08:06:47.577Z,995.74
2019-03-05T08:07:47.579Z,995.61
2019-03-05T08:08:47.558Z,995.64
2019-03-05T08:09:47.546Z,995.61
2019-03-05T08:10:47.565Z,995.76
2019-03-05T08:11:47.528Z,995.75
2019-03-05T08:12:47.512Z,995.68
2019-03-05T08:13:47.497Z,995.67
2019-03-05T08:14:47.489Z,995.72
2019-03-05T08:15:47.511Z,995.79
2019-03-05T08:16:47.467Z,995.79
2019-03-05T08:17:47.456Z,995.88
2019-03-05T08:18:47.451Z,995.84
2019-03-05T08:19:47.436Z,995.81
2019-03-05T08:20:47.428Z,995.77
2019-03-05T08:21:47.430Z,995.93
2019-03-05T08:22:47.408Z,995.79
2019-03-05T08:23:48.495Z,996.05
2019-03-05T08:24:47.381Z,995.89
2019-03-05T08:25:47.364Z,995.95
2019-03-05T08:26:47.377Z,995.96
2019-03-05T08:27:47.347Z,995.94
2019-03-05T08:28:47.337Z,996.01
2019-03-05T08:29:47.330Z,995.99
2019-03-05T08:30:47.313Z,995.97
2019-03-05T08:31:47.315Z,996.01
2019-03-05T08:32:47.287Z,996.12
2019-03-05T08:33:47.280Z,996.08
2019-03-05T08:34:47.290Z,996.08
2019-03-05T08:35:47.256Z,996.11
2019-03-05T08:36:47.272Z,996.12
2019-03-05T08:37:47.226Z,996.08
2019-03-05T08:38:47.222Z,996.10
2019-03-05T08:39:47.208Z,996.18
2019-03-05T08:40:47.199Z,996.16
2019-03-05T08:41:47.204Z,996.23
2019-03-05T08:42:47.171Z,996.11
2019-03-05T08:43:47.160Z,996.21
2019-03-05T08:44:50.716Z,996.18
2019-03-05T08:45:47.144Z,996.19
2019-03-05T08:46:47.154Z,996.21
2019-03-05T08:47:47.116Z,996.21
2019-03-05T08:48:47.112Z,996.20
2019-03-05T08:49:47.099Z,996.26
2019-03-05T08:50:47.085Z,996.29
2019-03-05T08:51:47.092Z,996.18
2019-03-05T08:52:47.080Z,996.30
2019-03-05T08:53:49.721Z,996.43
2019-03-05T08:54:47.035Z,996.37
2019-03-05T08:55:47.027Z,996.32
2019-03-05T08:56:47.023Z,996.34
2019-03-05T08:57:47.140Z,996.39
2019-03-05T08:58:47.029Z,996.43
2019-03-05T08:59:46.981Z,996.33
2019-03-05T09:00:48.202Z,996.24
2019-03-05T09:01:46.986Z,996.31
2019-03-05T09:02:49.071Z,996.37
2019-03-05T09:03:46.950Z,996.36
2019-03-05T09:04:46.928Z,996.35
2019-03-05T09:05:46.915Z,996.29
2019-03-05T09:06:46.912Z,996.41
2019-03-05T09:07:46.915Z,996.35
2019-03-05T09:08:46.889Z,996.35
2019-03-05T09:09:46.876Z,996.36
2019-03-05T09:10:46.861Z,996.33
2019-03-05T09:11:46.848Z,996.48
2019-03-05T09:12:46.857Z,996.34
2019-03-05T09:13:46.826Z,996.53
2019-03-05T09:14:46.825Z,996.53
2019-03-05T09:15:46.809Z,996.47
2019-03-05T09:16:46.796Z,996.44
2019-03-05T09:17:46.826Z,996.49
2019-03-05T09:18:46.776Z,996.53
2019-03-05T09:19:46.753Z,996.60
2019-03-05T09:20:46.749Z,996.50
2019-03-05T09:21:49.124Z,996.71
2019-03-05T09:22:46.745Z,996.43
2019-03-05T09:23:46.713Z,996.57
2019-03-05T09:24:46.704Z,996.70
2019-03-05T09:25:46.689Z,996.60
2019-03-05T09:26:51.191Z,996.44
2019-03-05T09:27:47.693Z,996.57
2019-03-05T09:28:46.656Z,996.59
2019-03-05T09:29:46.650Z,996.62
2019-03-05T09:30:46.630Z,996.57
2019-03-05T09:31:46.633Z,996.56
2019-03-05T09:32:46.639Z,996.62
2019-03-05T09:33:46.613Z,996.60
2019-03-05T09:34:46.595Z,996.60
2019-03-05T09:35:46.653Z,996.66
2019-03-05T09:36:50.951Z,996.55
2019-03-05T09:37:46.582Z,996.56
2019-03-05T09:38:46.544Z,996.67
2019-03-05T09:39:46.536Z,996.64
2019-03-05T09:40:46.522Z,996.66
2019-03-05T09:41:46.513Z,996.64
2019-03-05T09:42:46.508Z,996.57
2019-03-05T09:43:46.519Z,996.63
2019-03-05T09:44:46.472Z,996.65
2019-03-05T09:45:46.463Z,996.72
2019-03-05T09:46:46.456Z,996.77
2019-03-05T09:47:46.478Z,996.82
2019-03-05T09:48:46.444Z,996.89
2019-03-05T09:49:46.417Z,996.87
2019-03-05T09:50:46.405Z,997.00
2019-03-05T09:51:46.393Z,996.89
2019-03-05T09:52:54.486Z,996.87
2019-03-05T09:53:47.398Z,996.93
2019-03-05T09:54:46.374Z,996.98
2019-03-05T09:55:46.344Z,997.01
2019-03-05T09:56:46.337Z,996.99
2019-03-05T09:57:46.327Z,996.86
2019-03-05T09:58:46.351Z,996.97
2019-03-05T09:59:46.319Z,997.10
2019-03-05T10:00:46.292Z,997.07
2019-03-05T10:01:46.285Z,997.04
2019-03-05T10:02:46.274Z,997.08
2019-03-05T10:03:46.280Z,997.15
2019-03-05T10:04:46.253Z,997.22
2019-03-05T10:05:46.247Z,997.21
2019-03-05T10:06:46.232Z,997.20
2019-03-05T10:07:46.214Z,997.16
2019-03-05T10:08:46.226Z,997.23
2019-03-05T10:09:46.203Z,997.27
2019-03-05T10:10:46.185Z,997.18
2019-03-05T10:11:46.189Z,997.26
2019-03-05T10:12:46.160Z,997.25
2019-03-05T10:13:46.169Z,997.39
2019-03-05T10:14:46.166Z,997.21
2019-03-05T10:15:46.126Z,997.22
2019-03-05T10:16:46.130Z,997.27
2019-03-05T10:17:46.102Z,997.39
2019-03-05T10:18:46.111Z,997.34
2019-03-05T10:19:46.094Z,997.39
2019-03-05T10:20:46.084Z,997.36
2019-03-05T10:21:46.757Z,997.49
2019-03-05T10:22:46.058Z,997.40
2019-03-05T10:23:46.068Z,997.34
2019-03-05T10:24:46.026Z,997.41
2019-03-05T10:25:46.031Z,997.40
2019-03-05T10:26:46.015Z,997.38
2019-03-05T10:27:45.996Z,997.38
2019-03-05T10:28:46.000Z,997.34
2019-03-05T10:29:45.966Z,997.43
2019-03-05T10:30:46.008Z,997.34
2019-03-05T10:31:45.948Z,997.52
2019-03-05T10:32:45.935Z,997.43
2019-03-05T10:33:45.954Z,997.50
2019-03-05T10:34:45.919Z,997.39
2019-03-05T10:35:45.896Z,997.40
2019-03-05T10:36:45.888Z,997.30
2019-03-05T10:37:45.879Z,997.48
2019-03-05T10:38:56.582Z,997.47
2019-03-05T10:39:45.856Z,997.45
2019-03-05T10:40:45.843Z,997.51
2019-03-05T10:41:45.849Z,997.65
2019-03-05T10:42:45.827Z,997.66
2019-03-05T10:43:45.832Z,997.47
2019-03-05T10:44:45.808Z,997.63
2019-03-05T10:45:45.788Z,997.56
2019-03-05T10:46:45.774Z,997.60
2019-03-05T10:47:45.763Z,997.37
2019-03-05T10:48:45.776Z,997.60
2019-03-05T10:49:45.750Z,997.67
2019-03-05T10:50:45.752Z,997.62
2019-03-05T10:51:45.768Z,997.37
2019-03-05T10:52:45.702Z,997.43
2019-03-05T10:53:45.695Z,997.47
2019-03-05T10:54:45.707Z,997.48
2019-03-05T10:55:45.669Z,997.63
2019-03-05T10:56:45.671Z,997.54
2019-03-05T10:57:45.651Z,997.32
2019-03-05T10:58:45.636Z,997.55
2019-03-05T10:59:45.651Z,997.66
2019-03-05T11:00:45.614Z,997.46
2019-03-05T11:01:45.606Z,997.33
2019-03-05T11:02:45.599Z,997.30
2019-03-05T11:03:45.587Z,997.40
2019-03-05T11:04:46.113Z,997.38
2019-03-05T11:05:45.558Z,997.36
2019-03-05T11:06:45.553Z,997.41
2019-03-05T11:07:45.544Z,997.72
2019-03-05T11:08:45.532Z,997.56
2019-03-05T11:09:45.536Z,997.75
2019-03-05T11:10:45.502Z,997.67
2019-03-05T11:11:45.488Z,997.51
2019-03-05T11:12:45.480Z,997.75
2019-03-05T11:13:45.483Z,997.46
2019-03-05T11:14:45.481Z,997.57
2019-03-05T11:15:45.449Z,997.46
2019-03-05T11:16:45.433Z,997.52
2019-03-05T11:17:45.470Z,997.44
2019-03-05T11:18:45.420Z,997.43
2019-03-05T11:19:45.424Z,997.38
2019-03-05T11:20:45.385Z,997.49
2019-03-05T11:21:45.376Z,997.46
2019-03-05T11:22:45.367Z,997.50
2019-03-05T11:23:45.364Z,997.48
2019-03-05T11:24:45.369Z,997.50
2019-03-05T11:25:45.339Z,997.55
2019-03-05T11:26:45.330Z,997.58
2019-03-05T11:27:45.311Z,997.60
2019-03-05T11:28:45.301Z,997.56
2019-03-05T11:29:45.305Z,997.55
2019-03-05T11:30:45.280Z,997.66
2019-03-05T11:31:45.273Z,997.61
2019-03-05T11:32:45.255Z,997.58
2019-03-05T11:33:45.239Z,997.57
2019-03-05T11:34:45.263Z,997.60
2019-03-05T11:35:45.226Z,997.62
2019-03-05T11:36:45.209Z,997.57
2019-03-05T11:37:45.196Z,997.61
2019-03-05T11:38:45.204Z,997.63
2019-03-05T11:39:45.175Z,997.63
2019-03-05T11:40:45.180Z,997.58
2019-03-05T11:41:45.148Z,997.49
2019-03-05T11:42:45.143Z,997.59
2019-03-05T11:43:45.127Z,997.59
2019-03-05T11:44:58.805Z,997.54
2019-03-05T11:45:46.133Z,997.60
2019-03-05T11:46:45.108Z,997.55
2019-03-05T11:47:45.089Z,997.58
2019-03-05T11:48:45.081Z,997.54
2019-03-05T11:49:45.065Z,997.55
2019-03-05T11:50:45.069Z,997.55
2019-03-05T11:51:45.047Z,997.58
2019-03-05T11:52:45.021Z,997.48
2019-03-05T11:53:45.020Z,997.53
2019-03-05T11:54:45.011Z,997.51
2019-03-05T11:55:45.036Z,997.59
2019-03-05T11:56:44.985Z,997.64
2019-03-05T11:57:44.973Z,997.47
2019-03-05T11:58:44.960Z,997.53
2019-03-05T11:59:44.965Z,997.65
2019-03-05T12:00:44.968Z,997.67
2019-03-05T12:01:44.926Z,997.53
2019-03-05T12:02:44.914Z,997.64
2019-03-05T12:03:44.909Z,997.59
2019-03-05T12:04:44.892Z,997.62
2019-03-05T12:05:44.897Z,997.58
2019-03-05T12:06:44.867Z,997.58
2019-03-05T12:07:46.155Z,997.61
2019-03-05T12:08:44.847Z,997.62
2019-03-05T12:09:44.833Z,997.60
2019-03-05T12:10:44.843Z,997.69
2019-03-05T12:11:44.825Z,997.67
2019-03-05T12:12:44.805Z,997.76
2019-03-05T12:13:44.787Z,997.67
2019-03-05T12:14:44.778Z,997.84
2019-03-05T12:15:44.794Z,997.73
2019-03-05T12:16:44.755Z,997.74
2019-03-05T12:17:44.759Z,997.85
2019-03-05T12:18:44.732Z,997.83
2019-03-05T12:19:44.723Z,997.89
2019-03-05T12:20:44.734Z,997.83
2019-03-05T12:21:44.702Z,997.80
2019-03-05T12:22:44.690Z,997.92
2019-03-05T12:23:47.228Z,997.88
2019-03-05T12:24:44.668Z,997.92
2019-03-05T12:25:44.669Z,997.87
2019-03-05T12:26:44.639Z,997.90
2019-03-05T12:27:44.637Z,997.85
2019-03-05T12:28:44.630Z,997.87